Time;durP1;ratioP1;P1;durP2;ratioP2;P2;SDS_P1;SDS_P2;PMS_P1;PMS_P2;Temp;Humidity;BMP_temperature;BMP_pressure;BME280_temperature;BME280_humidity;BME280_pressure;Samples;Min_cycle;Max_cycle;Signal;HPM_P1;HPM_P2
2023/01/17 00:02:07;;;;;;;5.20;2.47;;;3.40;99.20;;;;;;4833228;29;20046;-85
2023/01/17 00:10:08;;;;;;;4.73;1.80;;;3.50;99.10;;;;;;4836031;29;20577;-83
2023/01/17 00:12:35;;;;;;;6.43;1.53;;;3.40;99.10;;;;;;4823193;29;20046;-84
2023/01/17 00:15:00;;;;;;;8.93;1.60;;;3.40;99.10;;;;;;4829160;29;20046;-83
2023/01/17 00:17:28;;;;;;;6.05;1.25;;;3.50;99.00;;;;;;4836874;29;20124;-84
2023/01/17 01:35:19;;;;;;;9.33;1.37;;;2.70;99.30;;;;;;4828145;29;20050;-81
2023/01/17 01:37:45;;;;;;;10.67;1.20;;;2.70;99.30;;;;;;4828109;29;20558;-78
2023/01/17 01:40:13;;;;;;;9.03;1.30;;;2.70;99.20;;;;;;4818284;29;20105;-89
2023/01/17 01:42:56;;;;;;;5.40;0.95;;;2.70;99.30;;;;;;4826882;29;20054;-79
2023/01/17 01:45:24;;;;;;;10.03;1.20;;;2.70;99.30;;;;;;4827095;29;20141;-84
2023/01/17 01:48:00;;;;;;;10.40;1.83;;;2.60;99.20;;;;;;4826015;29;20058;-81
2023/01/17 01:50:27;;;;;;;9.03;1.50;;;2.60;99.30;;;;;;4825226;29;20153;-86
2023/01/17 01:52:55;;;;;;;7.03;1.40;;;2.50;99.40;;;;;;4825831;29;20038;-87
2023/01/17 01:55:37;;;;;;;13.25;1.25;;;2.50;99.50;;;;;;4828009;29;20077;-86
2023/01/17 01:58:10;;;;;;;5.13;1.20;;;2.50;99.40;;;;;;4823596;29;20053;-83
2023/01/17 02:00:37;;;;;;;12.33;1.20;;;2.50;99.40;;;;;;4824008;29;20049;-88
2023/01/17 02:03:16;;;;;;;7.47;1.10;;;2.60;99.30;;;;;;4823942;29;20098;-82
2023/01/17 02:05:42;;;;;;;;;;;2.60;99.40;;;;;;4825441;29;20061;-88
2023/01/17 02:08:12;;;;;;;9.33;1.37;;;2.60;99.30;;;;;;4821901;29;20743;-80
2023/01/17 02:10:39;;;;;;;12.43;1.50;;;2.60;99.40;;;;;;4826020;29;20041;-86
2023/01/17 02:13:07;;;;;;;9.77;1.40;;;2.60;99.40;;;;;;4826881;29;20050;-86
2023/01/17 02:15:52;;;;;;;11.30;2.30;;;2.60;99.40;;;;;;4826630;29;20053;-88
2023/01/17 02:18:42;;;;;;;11.63;1.70;;;2.50;99.30;;;;;;4827872;29;20121;-89
2023/01/17 02:21:20;;;;;;;9.10;1.47;;;2.50;99.40;;;;;;4819435;29;20057;-83
2023/01/17 02:24:10;;;;;;;9.37;2.30;;;2.50;99.70;;;;;;4826066;29;20066;-83
2023/01/17 02:26:49;;;;;;;14.20;3.73;;;2.40;99.40;;;;;;4824575;29;20045;-84
2023/01/17 02:29:29;;;;;;;11.23;2.30;;;2.40;99.50;;;;;;4828367;29;20066;-86
2023/01/17 02:32:16;;;;;;;11.00;2.73;;;2.40;99.50;;;;;;4831170;29;20049;-84
2023/01/17 02:34:44;;;;;;;9.80;1.90;;;2.40;99.50;;;;;;4826517;29;20076;-87
2023/01/17 02:37:29;;;;;;;10.05;2.70;;;2.40;99.60;;;;;;4820635;29;20049;-86
2023/01/17 02:40:06;;;;;;;15.90;2.80;;;2.40;99.50;;;;;;4830834;29;20058;-89
2023/01/17 02:42:44;;;;;;;13.00;2.60;;;2.40;99.60;;;;;;4827591;29;20042;-87
2023/01/17 02:45:16;;;;;;;10.73;3.27;;;2.50;99.60;;;;;;4821579;29;20128;-87
2023/01/17 02:47:41;;;;;;;14.77;2.90;;;2.40;99.60;;;;;;4826309;29;20133;-89
2023/01/17 02:50:15;;;;;;;11.07;1.83;;;2.50;99.60;;;;;;4823872;29;20130;-79
2023/01/17 02:52:43;;;;;;;14.83;2.00;;;2.50;99.30;;;;;;4828008;29;20756;-83
2023/01/17 02:55:39;;;;;;;9.02;1.40;;;2.50;99.40;;;;;;4823129;29;20041;-85
2023/01/17 02:58:28;;;;;;;11.63;1.87;;;2.50;99.20;;;;;;4829157;29;20128;-85
2023/01/17 03:01:24;;;;;;;10.75;1.50;;;2.50;99.30;;;;;;4826383;29;20088;-86
2023/01/17 03:04:08;;;;;;;12.87;1.70;;;2.50;99.30;;;;;;4823198;29;20601;-87
2023/01/17 03:06:45;;;;;;;12.67;1.73;;;2.60;99.10;;;;;;4806337;29;20041;-88
2023/01/17 03:09:14;;;;;;;12.43;3.07;;;2.70;99.00;;;;;;4824227;29;20050;-87
2023/01/17 03:11:40;;;;;;;30.98;10.02;;;2.60;99.00;;;;;;4825112;29;20073;-86
2023/01/17 03:14:06;;;;;;;22.67;5.60;;;2.60;99.00;;;;;;4826711;29;20180;-87
2023/01/17 03:16:32;;;;;;;15.03;3.97;;;2.70;99.20;;;;;;4824457;29;20735;-84
2023/01/17 03:18:58;;;;;;;13.53;3.10;;;2.70;99.30;;;;;;4828172;29;20057;-86
2023/01/17 03:21:24;;;;;;;9.13;1.93;;;2.70;99.20;;;;;;4823972;29;20061;-86
2023/01/17 03:23:49;;;;;;;12.07;2.33;;;2.70;99.10;;;;;;4811367;29;20500;-87
2023/01/17 03:26:15;;;;;;;14.17;3.27;;;2.70;99.10;;;;;;4826824;29;20118;-80
2023/01/17 03:28:41;;;;;;;11.43;2.23;;;2.60;98.90;;;;;;4829588;29;20062;-87
2023/01/17 03:31:07;;;;;;;13.60;1.67;;;2.60;98.90;;;;;;4820729;29;20585;-89
2023/01/17 03:33:32;;;;;;;12.33;1.43;;;2.60;98.80;;;;;;4823914;29;20058;-85
2023/01/17 03:35:58;;;;;;;12.77;2.00;;;2.60;99.00;;;;;;4831182;29;20054;-87
2023/01/17 03:38:28;;;;;;;9.93;1.40;;;2.50;99.00;;;;;;4826946;29;20057;-89
2023/01/17 03:40:54;;;;;;;12.03;2.40;;;2.50;99.00;;;;;;4827390;29;21510;-80
2023/01/17 03:43:20;;;;;;;12.70;2.23;;;2.50;99.00;;;;;;4826655;29;20052;-82
2023/01/17 03:45:50;;;;;;;14.53;3.47;;;2.40;99.00;;;;;;4827079;29;20042;-82
2023/01/17 03:48:16;;;;;;;8.90;1.80;;;2.40;98.90;;;;;;4829072;29;20057;-80
2023/01/17 03:50:42;;;;;;;8.03;2.23;;;2.40;98.80;;;;;;4827050;29;22150;-79
2023/01/17 03:53:08;;;;;;;8.37;1.53;;;2.40;98.80;;;;;;4827829;29;20066;-80
2023/01/17 03:55:33;;;;;;;7.43;1.40;;;2.40;99.00;;;;;;4804178;29;20287;-81
2023/01/17 03:57:59;;;;;;;8.80;1.53;;;2.40;99.00;;;;;;4829352;29;20137;-81
2023/01/17 04:00:24;;;;;;;9.87;1.63;;;2.40;99.00;;;;;;4829355;29;20896;-80
2023/01/17 04:02:50;;;;;;;10.23;1.43;;;2.40;98.80;;;;;;4830357;29;20042;-80
2023/01/17 04:05:16;;;;;;;10.50;1.50;;;2.40;98.70;;;;;;4828190;29;20128;-80
2023/01/17 04:07:41;;;;;;;6.53;1.20;;;2.40;98.60;;;;;;4827600;29;20050;-87
2023/01/17 04:10:08;;;;;;;9.87;1.30;;;2.40;98.40;;;;;;4828082;29;20133;-80
2023/01/17 04:12:33;;;;;;;10.23;1.33;;;2.40;98.40;;;;;;4826956;29;20042;-85
2023/01/17 04:14:59;;;;;;;11.13;1.77;;;2.40;98.30;;;;;;4829997;29;20577;-80
2023/01/17 04:17:25;;;;;;;7.10;1.07;;;2.30;98.30;;;;;;4828826;29;20459;-81
2023/01/17 04:19:50;;;;;;;11.23;1.53;;;2.20;98.30;;;;;;4828973;29;20061;-80
2023/01/17 04:22:16;;;;;;;6.10;1.23;;;2.20;98.40;;;;;;4825385;29;20049;-80
2023/01/17 04:24:41;;;;;;;9.03;1.20;;;2.10;98.30;;;;;;4828972;29;20099;-86
2023/01/17 04:27:07;;;;;;;11.23;1.30;;;2.10;98.30;;;;;;4827349;29;20046;-87
2023/01/17 04:29:33;;;;;;;6.57;1.40;;;2.10;98.30;;;;;;4828054;29;20478;-85
2023/01/17 04:31:59;;;;;;;11.10;1.70;;;2.00;98.30;;;;;;4828782;29;20047;-87
2023/01/17 04:34:24;;;;;;;13.50;1.50;;;2.00;98.30;;;;;;4826263;29;20061;-85
2023/01/17 04:36:50;;;;;;;8.60;1.50;;;2.00;98.40;;;;;;4829025;29;20529;-84
2023/01/17 04:39:15;;;;;;;8.53;1.20;;;2.00;98.30;;;;;;4828624;29;20140;-86
2023/01/17 04:41:42;;;;;;;15.23;1.97;;;1.90;98.40;;;;;;4832257;29;20095;-86
2023/01/17 04:44:08;;;;;;;9.23;1.17;;;1.90;98.40;;;;;;4828626;29;20038;-85
2023/01/17 04:46:33;;;;;;;8.47;1.40;;;1.90;98.40;;;;;;4828003;29;21111;-84
2023/01/17 04:48:59;;;;;;;16.40;1.60;;;1.90;98.50;;;;;;4828215;29;20141;-84
2023/01/17 04:51:25;;;;;;;13.13;1.30;;;1.80;98.50;;;;;;4828237;29;21530;-82
2023/01/17 04:53:50;;;;;;;9.20;1.73;;;1.80;98.40;;;;;;4828048;29;20042;-86
2023/01/17 04:56:16;;;;;;;8.77;1.40;;;1.80;98.40;;;;;;4828308;29;20098;-85
2023/01/17 04:58:41;;;;;;;10.90;1.50;;;1.70;98.40;;;;;;4832130;29;20045;-84
2023/01/17 05:01:08;;;;;;;8.57;1.40;;;1.70;98.40;;;;;;4829521;29;20190;-81
2023/01/17 05:03:34;;;;;;;16.37;2.00;;;1.70;98.40;;;;;;4828220;29;20054;-83
2023/01/17 05:06:00;;;;;;;7.60;1.23;;;1.60;98.40;;;;;;4828330;29;20057;-88
2023/01/17 05:08:26;;;;;;;15.27;1.87;;;1.60;98.20;;;;;;4824791;29;20088;-83
2023/01/17 05:10:52;;;;;;;9.93;1.40;;;1.60;98.10;;;;;;4830492;29;20572;-84
2023/01/17 05:13:17;;;;;;;11.37;1.70;;;1.60;98.10;;;;;;4833904;29;20042;-81
2023/01/17 05:15:44;;;;;;;7.20;1.40;;;1.70;97.90;;;;;;4830052;29;20045;-85
2023/01/17 05:18:17;;;;;;;9.13;1.67;;;1.60;97.90;;;;;;4829112;29;20475;-84
2023/01/17 05:20:43;;;;;;;16.67;1.57;;;1.60;97.80;;;;;;4830093;29;20053;-86
2023/01/17 05:23:09;;;;;;;9.23;1.53;;;1.60;97.70;;;;;;4825961;29;20049;-82
2023/01/17 05:25:35;;;;;;;6.30;1.30;;;1.50;97.60;;;;;;4827702;29;20050;-88
2023/01/17 05:28:02;;;;;;;12.73;1.47;;;1.50;97.80;;;;;;4809282;29;20049;-88
2023/01/17 05:30:30;;;;;;;6.70;1.30;;;1.40;97.80;;;;;;4817201;29;20047;-86
2023/01/17 05:32:57;;;;;;;9.38;1.40;;;1.40;97.90;;;;;;4826411;29;20621;-82
2023/01/17 05:35:25;;;;;;;12.00;1.60;;;1.40;97.70;;;;;;4825946;29;20763;-81
2023/01/17 05:37:51;;;;;;;8.85;1.38;;;1.40;97.50;;;;;;4827350;29;20061;-86
2023/01/17 05:40:22;;;;;;;9.10;1.77;;;1.40;97.60;;;;;;4826423;29;20098;-85
2023/01/17 05:42:49;;;;;;;11.47;1.27;;;1.30;97.50;;;;;;4827014;29;20049;-85
2023/01/17 05:45:16;;;;;;;8.00;1.30;;;1.30;97.60;;;;;;4827579;29;20034;-88
2023/01/17 05:47:45;;;;;;;8.20;1.50;;;1.30;97.50;;;;;;4829687;29;20545;-84
2023/01/17 05:50:12;;;;;;;9.47;1.90;;;1.20;97.60;;;;;;4827173;29;20086;-88
2023/01/17 05:52:37;;;;;;;5.53;1.30;;;1.20;97.60;;;;;;4831021;29;20633;-84
2023/01/17 05:55:05;;;;;;;6.20;1.07;;;1.20;97.60;;;;;;4831716;29;20126;-81
2023/01/17 05:57:31;;;;;;;5.80;1.00;;;1.10;97.60;;;;;;4826217;29;20509;-84
2023/01/17 05:59:56;;;;;;;6.53;1.30;;;1.10;97.60;;;;;;4827481;29;20222;-87
2023/01/17 06:02:22;;;;;;;8.97;1.20;;;1.10;97.60;;;;;;4819556;29;20054;-83
2023/01/17 06:04:47;;;;;;;6.50;1.10;;;1.10;97.60;;;;;;4828456;29;20065;-87
2023/01/17 06:07:13;;;;;;;13.17;1.30;;;1.10;97.30;;;;;;4828555;29;20046;-84
2023/01/17 06:09:38;;;;;;;5.57;1.20;;;1.10;97.20;;;;;;4825200;29;20050;-83
2023/01/17 06:12:04;;;;;;;5.50;1.00;;;1.00;97.20;;;;;;4827547;29;20406;-88
2023/01/17 06:14:30;;;;;;;7.57;1.33;;;1.00;97.50;;;;;;4830311;29;20054;-86
2023/01/17 06:16:55;;;;;;;6.93;1.27;;;1.00;97.20;;;;;;4834021;29;20345;-84
2023/01/17 06:19:21;;;;;;;11.63;1.90;;;1.00;97.10;;;;;;4834848;29;20150;-85
2023/01/17 06:21:47;;;;;;;7.87;1.30;;;1.00;97.00;;;;;;4833146;29;20449;-86
2023/01/17 06:24:12;;;;;;;12.00;1.20;;;1.00;96.90;;;;;;4830901;29;20570;-86
2023/01/17 06:26:38;;;;;;;9.80;1.30;;;1.00;97.00;;;;;;4827037;29;20053;-88
2023/01/17 06:29:03;;;;;;;6.33;1.03;;;1.00;96.60;;;;;;4823141;29;20058;-88
2023/01/17 06:31:29;;;;;;;9.63;1.83;;;1.00;96.60;;;;;;4832692;29;20042;-85
2023/01/17 06:33:54;;;;;;;11.43;3.07;;;1.00;96.50;;;;;;4834711;29;20581;-89
2023/01/17 06:36:20;;;;;;;14.17;5.03;;;1.00;96.80;;;;;;4830020;29;20392;-87
2023/01/17 06:38:50;;;;;;;9.00;2.00;;;0.90;96.70;;;;;;4835298;29;20088;-89
2023/01/17 06:41:15;;;;;;;5.87;1.33;;;0.90;96.70;;;;;;4816295;29;20107;-84
2023/01/17 06:43:41;;;;;;;7.20;1.83;;;0.90;96.50;;;;;;4826770;29;20483;-89
2023/01/17 06:46:06;;;;;;;11.03;2.97;;;0.90;96.60;;;;;;4825911;29;20118;-85
2023/01/17 06:48:32;;;;;;;10.97;2.23;;;0.90;96.80;;;;;;4827824;29;20478;-84
2023/01/17 06:50:58;;;;;;;4.90;1.40;;;0.80;96.90;;;;;;4823240;29;20141;-84
2023/01/17 06:53:24;;;;;;;5.27;2.40;;;0.80;96.80;;;;;;4824993;29;20057;-85
2023/01/17 06:55:49;;;;;;;18.27;7.07;;;0.80;96.90;;;;;;4826612;29;20055;-86
2023/01/17 06:58:15;;;;;;;8.73;1.90;;;0.70;97.00;;;;;;4838234;29;20475;-87
2023/01/17 07:00:40;;;;;;;8.33;1.87;;;0.70;97.00;;;;;;4829735;29;20053;-88
2023/01/17 07:03:21;;;;;;;5.23;1.80;;;0.80;97.00;;;;;;4823878;29;20053;-87
2023/01/17 07:05:47;;;;;;;6.03;1.50;;;0.70;97.10;;;;;;4825259;29;20050;-85
2023/01/17 07:08:15;;;;;;;10.80;3.40;;;0.70;97.20;;;;;;4824438;29;20050;-85
2023/01/17 07:10:40;;;;;;;5.97;1.40;;;0.70;96.90;;;;;;4827215;29;20598;-80
2023/01/17 07:13:06;;;;;;;8.70;1.83;;;0.70;97.00;;;;;;4838109;29;20057;-82
2023/01/17 07:15:31;;;;;;;6.23;1.27;;;0.70;96.90;;;;;;4829367;29;20452;-81
2023/01/17 07:18:00;;;;;;;7.33;2.37;;;0.70;96.90;;;;;;4831294;29;20510;-80
2023/01/17 07:20:26;;;;;;;7.60;1.70;;;0.70;96.60;;;;;;4813921;29;20487;-80
2023/01/17 07:22:51;;;;;;;9.13;2.00;;;0.70;96.70;;;;;;4830172;29;20058;-81
2023/01/17 07:25:18;;;;;;;5.80;1.10;;;0.70;96.50;;;;;;4825990;29;20133;-79
2023/01/17 07:27:45;;;;;;;12.53;1.80;;;0.70;96.70;;;;;;4827479;29;20057;-87
2023/01/17 07:30:11;;;;;;;7.80;1.50;;;0.70;96.70;;;;;;4835054;29;20042;-89
2023/01/17 07:32:37;;;;;;;7.77;1.67;;;0.80;96.50;;;;;;4831856;29;20046;-81
2023/01/17 07:35:04;;;;;;;12.70;1.90;;;0.80;96.40;;;;;;4828586;29;20126;-86
2023/01/17 07:37:29;;;;;;;7.47;1.50;;;0.80;96.30;;;;;;4829330;29;20061;-85
2023/01/17 07:39:55;;;;;;;9.17;2.20;;;0.80;96.30;;;;;;4826997;29;20060;-86
2023/01/17 07:42:21;;;;;;;6.53;1.40;;;0.70;96.30;;;;;;4826548;29;20530;-93
2023/01/17 07:44:47;;;;;;;3.50;1.17;;;0.70;96.40;;;;;;4828803;29;20547;-90
2023/01/17 07:47:12;;;;;;;6.07;1.37;;;0.70;96.30;;;;;;4827312;29;20046;-90
2023/01/17 07:49:38;;;;;;;7.33;1.77;;;0.70;96.40;;;;;;4819540;29;20176;-78
2023/01/17 07:52:08;;;;;;;4.97;1.80;;;0.70;96.50;;;;;;4828138;29;20050;-91
2023/01/17 07:54:35;;;;;;;9.00;2.40;;;0.60;96.20;;;;;;4828284;29;20056;-88
2023/01/17 07:57:01;;;;;;;12.00;2.53;;;0.70;96.50;;;;;;4827828;29;20911;-84
2023/01/17 07:59:26;;;;;;;8.23;2.27;;;0.70;96.40;;;;;;4828058;29;20121;-86
2023/01/17 08:01:52;;;;;;;10.67;2.20;;;0.70;96.30;;;;;;4811999;29;20158;-85
2023/01/17 08:04:18;;;;;;;7.17;1.53;;;0.80;96.30;;;;;;4821155;29;20065;-81
2023/01/17 08:06:47;;;;;;;7.13;2.27;;;0.80;96.40;;;;;;4827875;29;21812;-85
2023/01/17 08:09:13;;;;;;;5.47;1.33;;;0.80;96.40;;;;;;4829601;29;20083;-86
2023/01/17 08:11:38;;;;;;;6.53;1.43;;;0.80;96.10;;;;;;4811822;29;20383;-84
2023/01/17 08:14:04;;;;;;;4.73;1.37;;;0.90;95.80;;;;;;4830111;29;20175;-85
2023/01/17 08:16:29;;;;;;;8.63;1.53;;;0.90;96.00;;;;;;4825910;29;20057;-84
2023/01/17 08:18:55;;;;;;;6.43;1.37;;;1.00;96.00;;;;;;4815590;29;20041;-85
2023/01/17 08:21:21;;;;;;;6.13;1.40;;;1.00;95.90;;;;;;4826640;29;20132;-82
2023/01/17 08:23:48;;;;;;;7.07;1.47;;;1.00;95.90;;;;;;4813026;29;20101;-84
2023/01/17 08:26:20;;;;;;;6.77;1.03;;;1.00;95.90;;;;;;4827787;29;20759;-81
2023/01/17 08:28:47;;;;;;;4.80;1.10;;;1.10;95.90;;;;;;4827068;29;20068;-85
2023/01/17 08:31:12;;;;;;;6.70;1.60;;;1.10;96.10;;;;;;4827954;29;20042;-86
2023/01/17 08:33:38;;;;;;;8.50;1.40;;;1.10;96.20;;;;;;4823356;29;20138;-84
2023/01/17 08:36:04;;;;;;;11.13;1.70;;;1.20;96.20;;;;;;4828096;29;20058;-84
2023/01/17 08:38:29;;;;;;;6.50;1.30;;;1.30;96.30;;;;;;4829023;29;20506;-84
2023/01/17 08:40:58;;;;;;;8.47;1.87;;;1.30;96.20;;;;;;4827705;29;20097;-87
2023/01/17 08:43:24;;;;;;;;;;;1.40;96.30;;;;;;4821281;29;20265;-87
2023/01/17 08:45:50;;;;;;;5.63;1.10;;;1.40;95.80;;;;;;4813040;29;20649;-81
2023/01/17 08:48:15;;;;;;;5.40;1.50;;;1.40;96.20;;;;;;4828780;29;20050;-81
2023/01/17 08:50:41;;;;;;;5.37;1.30;;;1.40;96.30;;;;;;4828169;29;20130;-84
2023/01/17 08:53:06;;;;;;;9.03;1.50;;;1.40;96.20;;;;;;4826353;29;20053;-83
2023/01/17 08:55:36;;;;;;;5.50;1.60;;;1.40;96.10;;;;;;4827220;29;20058;-86
2023/01/17 08:58:02;;;;;;;9.70;1.20;;;1.40;96.30;;;;;;4810549;29;20073;-84
2023/01/17 09:00:28;;;;;;;5.67;1.20;;;1.50;96.30;;;;;;4828350;29;20756;-83
2023/01/17 09:02:54;;;;;;;6.83;1.33;;;1.50;96.30;;;;;;4826641;29;20058;-83
2023/01/17 09:05:19;;;;;;;9.80;1.47;;;1.60;96.20;;;;;;4828201;29;20650;-81
2023/01/17 09:07:45;;;;;;;11.10;1.43;;;1.60;95.90;;;;;;4825911;29;20038;-81
2023/01/17 09:10:11;;;;;;;8.87;1.53;;;1.70;96.10;;;;;;4830023;29;20042;-83
2023/01/17 09:12:37;;;;;;;5.23;1.70;;;1.80;96.00;;;;;;4825334;29;20526;-82
2023/01/17 09:15:04;;;;;;;6.17;1.33;;;1.80;95.90;;;;;;4828678;29;20939;-84
2023/01/17 09:17:29;;;;;;;5.47;1.20;;;1.90;95.80;;;;;;4827120;29;20152;-80
2023/01/17 09:19:55;;;;;;;7.67;1.27;;;1.90;95.50;;;;;;4826028;29;20144;-81
2023/01/17 09:22:20;;;;;;;6.30;1.40;;;2.00;95.40;;;;;;4826421;29;20558;-82
2023/01/17 09:24:46;;;;;;;9.93;1.80;;;2.10;95.10;;;;;;4827187;29;20121;-82
2023/01/17 09:27:12;;;;;;;7.57;1.53;;;2.10;95.00;;;;;;4831425;29;20053;-82
2023/01/17 09:29:37;;;;;;;6.37;1.40;;;2.10;95.20;;;;;;4825510;29;20038;-82
2023/01/17 09:32:03;;;;;;;6.83;2.50;;;2.20;95.00;;;;;;4826160;29;20049;-81
2023/01/17 09:34:29;;;;;;;4.83;1.20;;;2.30;94.80;;;;;;4821215;29;20121;-81
2023/01/17 09:36:55;;;;;;;6.00;1.67;;;2.40;94.60;;;;;;4827087;29;20125;-82
2023/01/17 09:39:21;;;;;;;4.40;1.27;;;2.40;94.80;;;;;;4828238;29;20202;-81
2023/01/17 09:42:18;;;;;;;6.03;1.20;;;2.50;94.50;;;;;;4829901;29;20495;-79
2023/01/17 09:44:47;;;;;;;6.70;1.30;;;2.50;94.50;;;;;;4827240;29;20049;-81
2023/01/17 09:47:28;;;;;;;6.23;1.50;;;2.50;94.70;;;;;;4826437;29;20058;-80
2023/01/17 09:49:59;;;;;;;4.87;1.30;;;2.50;94.60;;;;;;4827629;29;20049;-82
2023/01/17 09:52:29;;;;;;;5.63;1.33;;;2.50;94.80;;;;;;4828198;29;20414;-82
2023/01/17 09:54:55;;;;;;;4.30;1.20;;;2.60;94.80;;;;;;4827758;29;20119;-80
2023/01/17 09:57:56;;;;;;;4.30;1.27;;;2.70;94.60;;;;;;4825392;29;20054;-80
2023/01/17 10:00:46;;;;;;;3.90;1.27;;;2.80;94.00;;;;;;4808998;29;20140;-88
2023/01/17 10:03:36;;;;;;;5.00;1.43;;;2.80;94.00;;;;;;4828673;29;20046;-85
2023/01/17 10:06:35;;;;;;;7.70;1.10;;;2.90;93.90;;;;;;4825498;29;20535;-83
2023/01/17 10:09:22;;;;;;;6.83;1.30;;;3.00;94.20;;;;;;4825926;29;20084;-81
2023/01/17 10:12:07;;;;;;;4.90;1.10;;;3.10;94.00;;;;;;4828677;29;20053;-78
2023/01/17 10:14:49;;;;;;;9.80;1.20;;;3.20;93.80;;;;;;4817324;29;20050;-89
2023/01/17 10:17:41;;;;;;;8.97;1.40;;;3.30;93.40;;;;;;4825414;29;20518;-84
2023/01/17 10:20:12;;;;;;;9.33;2.20;;;3.40;93.90;;;;;;4816766;29;20053;-81
2023/01/17 10:22:55;;;;;;;8.37;1.33;;;3.60;94.00;;;;;;4824545;29;20086;-82
2023/01/17 10:25:42;;;;;;;6.87;1.57;;;3.60;93.50;;;;;;4827562;29;20057;-83
2023/01/17 10:28:34;;;;;;;9.63;2.63;;;3.60;93.10;;;;;;4822832;29;20802;-86
2023/01/17 10:31:09;;;;;;;7.90;2.73;;;3.60;93.80;;;;;;4804930;29;20056;-80
2023/01/17 10:33:47;;;;;;;11.27;4.10;;;3.70;93.90;;;;;;4825910;29;20186;-85
2023/01/17 10:36:29;;;;;;;4.85;3.08;;;3.80;94.00;;;;;;4825042;29;20069;-85
2023/01/17 10:38:58;;;;;;;12.57;3.10;;;3.90;93.60;;;;;;4827612;29;20061;-80
2023/01/17 10:41:25;;;;;;;7.35;2.33;;;4.00;93.60;;;;;;4825089;29;20542;-84
2023/01/17 10:44:21;;;;;;;7.22;1.73;;;4.00;93.30;;;;;;4825520;29;20495;-84
2023/01/17 10:47:20;;;;;;;6.97;3.53;;;4.00;92.80;;;;;;4825863;29;20054;-84
2023/01/17 10:49:50;;;;;;;12.90;1.85;;;4.00;92.60;;;;;;4823660;29;20745;-78
2023/01/17 10:52:45;;;;;;;8.20;1.83;;;4.10;92.60;;;;;;4824448;29;20435;-78
2023/01/17 10:55:17;;;;;;;5.95;2.17;;;4.10;92.50;;;;;;4804233;29;20159;-80
2023/01/17 10:57:46;;;;;;;8.15;1.40;;;4.20;92.70;;;;;;4824176;29;20581;-78
2023/01/17 11:00:49;;;;;;;9.60;2.40;;;4.20;92.30;;;;;;4825163;29;20046;-81
2023/01/17 11:03:19;;;;;;;6.83;1.50;;;4.20;91.50;;;;;;4820645;29;20130;-78
2023/01/17 11:05:45;;;;;;;7.43;1.67;;;4.20;91.90;;;;;;4826252;29;20053;-86
2023/01/17 11:08:13;;;;;;;6.32;1.90;;;4.20;92.00;;;;;;4825958;29;20077;-85
2023/01/17 11:10:48;;;;;;;9.97;1.90;;;4.20;92.00;;;;;;4824323;29;20420;-79
2023/01/17 11:13:35;;;;;;;7.88;1.70;;;4.20;91.70;;;;;;4824237;29;20681;-88
2023/01/17 11:16:08;;;;;;;8.40;2.80;;;4.20;91.40;;;;;;4830760;29;20046;-79
2023/01/17 11:18:37;;;;;;;14.48;2.72;;;4.20;91.90;;;;;;4825267;29;20576;-81
2023/01/17 11:21:16;;;;;;;6.53;1.42;;;4.30;91.70;;;;;;4833362;29;20060;-86
2023/01/17 11:23:45;;;;;;;8.48;1.85;;;4.40;91.50;;;;;;4832052;29;20054;-87
2023/01/17 11:26:28;;;;;;;5.07;2.00;;;4.50;91.30;;;;;;4828763;29;20053;-86
2023/01/17 11:29:31;;;;;;;8.18;2.10;;;4.60;91.00;;;;;;4825694;29;20104;-79
2023/01/17 11:32:15;;;;;;;11.40;1.58;;;4.60;90.50;;;;;;4827548;29;20081;-80
2023/01/17 11:34:41;;;;;;;8.15;1.73;;;4.60;90.70;;;;;;4813274;29;20501;-80
2023/01/17 11:37:18;;;;;;;13.65;1.90;;;4.60;90.40;;;;;;4815600;29;20153;-80
2023/01/17 11:39:46;;;;;;;8.77;2.53;;;4.70;88.30;;;;;;4831582;29;20108;-79
2023/01/17 11:42:33;;;;;;;4.93;1.70;;;4.60;90.20;;;;;;4830509;29;20060;-87
2023/01/17 11:45:21;;;;;;;10.75;3.95;;;4.70;89.40;;;;;;4830596;29;20046;-82
2023/01/17 11:47:47;;;;;;;10.48;1.90;;;4.80;87.00;;;;;;4832917;29;20065;-79
2023/01/17 11:50:24;;;;;;;6.78;1.30;;;4.80;90.50;;;;;;4831965;29;20054;-86
2023/01/17 11:52:50;;;;;;;6.30;1.30;;;4.90;87.60;;;;;;4813694;29;20551;-80
2023/01/17 11:55:16;;;;;;;5.80;1.10;;;4.90;89.50;;;;;;4826341;29;20042;-85
2023/01/17 11:57:48;;;;;;;6.13;1.50;;;5.00;88.70;;;;;;4818140;29;20057;-84
2023/01/17 12:00:36;;;;;;;6.22;1.20;;;5.00;89.00;;;;;;4848261;29;20061;-86
2023/01/17 12:03:05;;;;;;;10.00;1.48;;;5.00;86.60;;;;;;4820655;29;20049;-85
2023/01/17 12:05:53;;;;;;;5.60;1.48;;;5.00;87.30;;;;;;4833833;29;20829;-87
2023/01/17 12:08:44;;;;;;;7.17;1.53;;;5.00;86.70;;;;;;4835237;29;20064;-85
2023/01/17 12:11:36;;;;;;;9.57;1.63;;;5.00;84.40;;;;;;4836236;29;20438;-87
2023/01/17 12:14:25;;;;;;;8.07;1.20;;;5.00;86.00;;;;;;4835928;29;20064;-86
2023/01/17 12:17:17;;;;;;;8.52;1.73;;;5.10;85.70;;;;;;4840933;29;20545;-86
2023/01/17 12:20:03;;;;;;;8.27;1.40;;;5.10;85.10;;;;;;4834137;29;20054;-85
2023/01/17 12:23:03;;;;;;;6.25;1.05;;;5.20;85.30;;;;;;4827166;29;20046;-85
2023/01/17 12:26:26;;;;;;;6.90;1.20;;;5.20;85.30;;;;;;4829753;29;20066;-78
2023/01/17 12:29:16;;;;;;;5.75;1.50;;;5.20;84.80;;;;;;4810486;29;20096;-82
2023/01/17 12:31:50;;;;;;;6.43;1.30;;;5.20;86.10;;;;;;4827272;29;20053;-85
2023/01/17 12:34:25;;;;;;;4.57;1.10;;;5.20;86.80;;;;;;4822773;29;20050;-77
2023/01/17 12:37:05;;;;;;;4.90;1.50;;;5.20;84.80;;;;;;4827693;29;20053;-82
2023/01/17 12:39:45;;;;;;;8.93;1.60;;;5.20;85.70;;;;;;4828602;29;20104;-78
2023/01/17 12:42:18;;;;;;;6.97;1.92;;;5.20;83.70;;;;;;4845778;29;20484;-79
2023/01/17 12:44:56;;;;;;;10.15;1.50;;;5.20;84.80;;;;;;4834511;29;20487;-78
2023/01/17 12:47:22;;;;;;;9.48;1.67;;;5.10;83.30;;;;;;4834659;29;20442;-78
2023/01/17 12:50:02;;;;;;;10.48;2.50;;;5.10;84.80;;;;;;4835650;29;20042;-80
2023/01/17 12:52:57;;;;;;;8.60;1.90;;;5.10;85.00;;;;;;4835404;29;20120;-80
2023/01/17 12:55:50;;;;;;;5.03;1.45;;;5.00;83.50;;;;;;4819946;29;20102;-80
2023/01/17 12:58:21;;;;;;;7.50;1.48;;;5.00;82.70;;;;;;4834564;29;20053;-78
2023/01/17 13:00:55;;;;;;;4.68;1.45;;;4.90;84.40;;;;;;4834941;29;20061;-79
2023/01/17 13:03:46;;;;;;;3.30;1.20;;;4.90;82.80;;;;;;4829369;29;20072;-79
2023/01/17 13:06:44;;;;;;;5.00;1.10;;;4.90;81.60;;;;;;4833712;29;20111;-81
2023/01/17 13:09:16;;;;;;;6.10;1.20;;;4.90;80.50;;;;;;4804148;29;20058;-81
2023/01/17 13:12:09;;;;;;;5.82;1.30;;;4.90;82.30;;;;;;4831116;29;20126;-79
2023/01/17 13:14:35;;;;;;;4.43;1.30;;;4.90;81.30;;;;;;4831286;29;20050;-78
2023/01/17 13:17:13;;;;;;;9.25;1.50;;;4.90;81.90;;;;;;4826539;29;20120;-77
2023/01/17 13:19:49;;;;;;;5.10;1.38;;;4.90;81.40;;;;;;4830247;29;20117;-79
2023/01/17 13:22:22;;;;;;;4.05;1.08;;;5.00;81.60;;;;;;4832167;29;20137;-78
2023/01/17 13:25:28;;;;;;;4.63;1.30;;;5.10;79.30;;;;;;4833856;29;20042;-81
2023/01/17 13:28:12;;;;;;;4.85;1.17;;;5.00;78.70;;;;;;4837013;29;20852;-80
2023/01/17 13:30:57;;;;;;;5.00;1.30;;;5.00;77.30;;;;;;4824936;29;20053;-84
2023/01/17 13:34:08;;;;;;;2.60;0.90;;;5.00;77.80;;;;;;4817382;29;20507;-82
2023/01/17 13:36:56;;;;;;;5.47;1.20;;;4.90;75.90;;;;;;4831482;29;20533;-80
2023/01/17 13:39:40;;;;;;;4.38;0.95;;;4.90;78.40;;;;;;4831815;29;20543;-81
2023/01/17 13:42:28;;;;;;;7.97;1.15;;;4.90;80.30;;;;;;4834074;29;20118;-81
2023/01/17 13:44:55;;;;;;;7.55;1.83;;;4.90;79.60;;;;;;4835007;29;20074;-81
2023/01/17 13:47:20;;;;;;;2.88;1.05;;;5.00;80.60;;;;;;4817845;29;20046;-79
2023/01/17 13:49:48;;;;;;;5.97;1.20;;;5.00;79.30;;;;;;4824238;29;20532;-82
2023/01/17 13:52:20;;;;;;;7.30;1.00;;;5.00;79.10;;;;;;4830056;29;20063;-79
2023/01/17 13:54:45;;;;;;;5.57;1.15;;;5.00;78.70;;;;;;4831365;29;20045;-80
2023/01/17 13:57:28;;;;;;;6.55;1.10;;;5.00;78.30;;;;;;4835705;29;20210;-81
2023/01/17 13:59:55;;;;;;;10.68;1.23;;;5.00;75.90;;;;;;4820336;29;20114;-82
2023/01/17 14:02:30;;;;;;;1.45;0.80;;;5.00;77.30;;;;;;4823965;29;20096;-82
2023/01/17 14:05:10;;;;;;;4.82;1.05;;;5.00;76.00;;;;;;4819250;29;20050;-82
2023/01/17 14:07:47;;;;;;;3.25;1.35;;;5.00;76.10;;;;;;4821992;29;20086;-77
2023/01/17 14:10:29;;;;;;;4.40;1.00;;;5.10;76.60;;;;;;4819831;29;21425;-77
2023/01/17 14:12:55;;;;;;;8.77;1.27;;;5.10;76.50;;;;;;4829519;29;20062;-82
2023/01/17 14:15:25;;;;;;;2.53;1.20;;;5.00;75.70;;;;;;4832272;29;20054;-79
2023/01/17 14:18:28;;;;;;;3.60;1.00;;;4.90;76.20;;;;;;4825502;29;20054;-80
2023/01/17 14:21:06;;;;;;;11.15;3.80;;;4.90;74.50;;;;;;4833128;29;20034;-80
2023/01/17 14:23:39;;;;;;;5.32;1.75;;;4.70;76.10;;;;;;4832376;29;20090;-81
2023/01/17 14:26:49;;;;;;;4.07;1.08;;;4.70;77.10;;;;;;4830882;29;20038;-81
2023/01/17 14:29:39;;;;;;;3.97;1.35;;;4.60;73.70;;;;;;4816622;29;20071;-77
2023/01/17 14:32:12;;;;;;;8.88;1.90;;;4.50;74.30;;;;;;4825576;29;20050;-80
2023/01/17 14:34:38;;;;;;;2.63;1.20;;;4.40;77.80;;;;;;4814583;29;20054;-81
2023/01/17 14:37:14;;;;;;;8.75;0.98;;;4.40;76.40;;;;;;4832332;29;20080;-82
2023/01/17 14:39:48;;;;;;;5.50;1.10;;;4.40;75.90;;;;;;4826108;29;20049;-77
2023/01/17 14:42:17;;;;;;;6.22;1.23;;;4.30;76.70;;;;;;4833106;29;20049;-80
2023/01/17 14:44:49;;;;;;;2.60;0.80;;;4.20;77.40;;;;;;4834595;29;20053;-80